首页
METAR-TAF:

METAR-TAF

机场 :

仁川國際機場

仁川国际机场, 大韩民国

纬度: 37-28N, 经度: 126-27E, 海拔: 7米

当前天气观测

该预报发布于35分钟前的14:00 UTC
风速9节,风向西北
温度 14°C
湿度 58%
气压 1019 hPa
能见度10公里或以上
少量云层高于3000英尺

METAR: RKSI 231400Z 32009KT 9999 FEW030 14/06 Q1019 NOSIG

时间: 23:35 (14:35 UTC)

预报

该预报发布于3小时和35分钟前的11:00 UTC
预报有效从23日的 12点(UTC)到 24日的 18点(UTC)
风速13节,风向北转西北
能見度: 7000
散云层高于3000英尺
成为
从 23日的 15点(UTC)到 23日的 16点(UTC)
风速8节,风向东北
成为
从 23日的 18点(UTC)到 23日的 19点(UTC)
风速6节,风向东转东南
成为
从 24日的 02点(UTC)到 24日的 03点(UTC)
风速7节,风向西转西北
成为
从 24日的 14点(UTC)到 24日的 15点(UTC)
风速6节,风向东转东北

TAF: RKSI 231100Z 2312/2418 33013KT 7000 SCT030 TN10/2321Z TX17/2406Z BECMG 2315/2316 05008KT BECMG 2318/2319 12006KT BECMG 2402/2403 30007KT BECMG 2414/2415 07006KT

超过4000个机场的气象观测和天气预报(METAR&TAF报告)。

可查询的气象台以黄色和红色小点在地图上表示。

将鼠标移到小点上方,可查看气象台名称。

然后点击查看天气观测和预报。

如需切换地图:点击带黑十字的绿色按钮放大地图;点击带横线的绿色按钮缩小地图;或者点击绿色箭头查看邻近地区的地图。


METAR-TAF: